| Temperature (°F) | Max | Average | Min |
|---|---|---|---|
| Max Temperature | 78 | 58.66 | 39 |
| Avg Temperature | 64.54 | 48.72 | 34 |
| Min Temperature | 63 | 41.34 | 29 |
| Precipitation (in) | Max | Average | Min | Sum |
|---|---|---|---|---|
| Precipitation | 2.39 | 0.13 | 0 | 4.15 |
| Dew Point (°F) | Max | Average | Min |
|---|---|---|---|
| Dew Point | 55.94 | 41.25 | 16.38 |
| Wind (mph) | Max | Average | Min |
|---|---|---|---|
| Wind | 30 | 19.72 | 10 |
| Gust Wind | 44 | 27.66 | 17 |
| Sea Level Pressure (in) | Max | Average | Min |
|---|---|---|---|
| Sea Level Pressure | 30.54 | 30.1 | 29.65 |
| Date | Temp High/Low | Dew Pt High/Low | Humidity | Wind | Max Wind | Wind Gust | Pressure | Precip. | Condition |
|---|---|---|---|---|---|---|---|---|---|
| 3/1/2026 | 55 °F / 35 °F | 46 °F / 30 °F | 87 % | 24 mph | - | 30.09 in | 0 in | ||
| 3/2/2026 | 39 °F / 33 °F | 35 °F / 27 °F | 79 % | 24 mph | - | 30.52 in | 0.02 in | ||
| 3/3/2026 | 47 °F / 37 °F | 47 °F / 36 °F | 98 % | 14 mph | - | 30.38 in | 0.26 in | ||
| 3/4/2026 | 60 °F / 40 °F | 50 °F / 40 °F | 91 % | 14 mph | - | 30.21 in | 0.02 in | ||
| 3/5/2026 | 71 °F / 42 °F | 57 °F / 42 °F | 95 % | 15 mph | - | 30.13 in | 0 in | ||
| 3/6/2026 | 49 °F / 41 °F | 48 °F / 39 °F | 94 % | 22 mph | - | 30.25 in | 0 in | ||
| 3/7/2026 | 56 °F / 43 °F | 53 °F / 42 °F | 98 % | 17 mph | - | 30.12 in | 0 in | ||
| 3/8/2026 | 54 °F / 53 °F | 53 °F / 51 °F | 95 % | 12 mph | - | 29.89 in | 0 in | ||
| 3/9/2026 | 68 °F / 49 °F | 60 °F / 49 °F | 95 % | 14 mph | - | 30.01 in | 0 in | ||
| 3/10/2026 | 74 °F / 45 °F | 59 °F / 45 °F | 85 % | 15 mph | - | 30.02 in | 0 in | ||
| 3/11/2026 | 67 °F / 49 °F | 59 °F / 48 °F | 86 % | 21 mph | - | 29.88 in | 0 in | ||
| 3/12/2026 | 67 °F / 33 °F | 59 °F / 32 °F | 87 % | 23 mph | - | 29.85 in | 0.94 in | ||
| 3/13/2026 | 55 °F / 29 °F | 41 °F / 26 °F | 76 % | 26 mph | - | 30.05 in | 0 in | ||
| 3/14/2026 | 58 °F / 44 °F | 40 °F / 18 °F | 45 % | 20 mph | - | 30.05 in | 0 in | ||
| 3/15/2026 | 57 °F / 40 °F | 52 °F / 29 °F | 73 % | 22 mph | - | 30.19 in | 0.2 in | ||
| 3/16/2026 | 60 °F / 51 °F | 59 °F / 47 °F | 97 % | 30 mph | - | 29.61 in | 2.27 in | ||
| 3/17/2026 | 50 °F / 36 °F | 47 °F / 17 °F | 59 % | 20 mph | - | 29.87 in | 0.01 in | ||
| 3/18/2026 | 38 °F / 29 °F | 23 °F / 10 °F | 51 % | 12 mph | - | 30.34 in | 0 in | ||
| 3/19/2026 | 47 °F / 34 °F | 33 °F / 24 °F | 60 % | 10 mph | - | 30.24 in | 0 in | ||
| 3/20/2026 | 56 °F / 34 °F | 45 °F / 29 °F | 69 % | 22 mph | - | 30.03 in | 0.01 in | ||
| 3/21/2026 | 69 °F / 48 °F | 52 °F / 43 °F | 74 % | 20 mph | - | 29.85 in | 0.02 in | ||
| 3/22/2026 | 66 °F / 46 °F | 57 °F / 46 °F | 94 % | 15 mph | - | 29.83 in | 0 in | ||
| 3/23/2026 | 66 °F / 41 °F | 54 °F / 24 °F | 81 % | 25 mph | - | 29.83 in | 0 in | ||
| 3/24/2026 | 46 °F / 33 °F | 28 °F / 18 °F | 53 % | 15 mph | - | 30.36 in | 0 in | ||
| 3/25/2026 | 51 °F / 32 °F | 44 °F / 29 °F | 69 % | 16 mph | - | 30.31 in | 0 in | ||
| 3/26/2026 | 66 °F / 51 °F | 53 °F / 45 °F | 77 % | 20 mph | - | 29.98 in | 0 in | ||
| 3/27/2026 | 73 °F / 44 °F | 59 °F / 41 °F | 79 % | 25 mph | - | 29.94 in | 0.4 in | ||
| 3/28/2026 | 47 °F / 37 °F | 42 °F / 14 °F | 60 % | 20 mph | - | 30.36 in | 0 in | ||
| 3/29/2026 | 51 °F / 33 °F | 43 °F / 24 °F | 66 % | 21 mph | - | 30.52 in | 0 in | ||
| 3/30/2026 | 71 °F / 49 °F | 51 °F / 44 °F | 73 % | 20 mph | - | 30.27 in | 0 in | ||
| 3/31/2026 | 78 °F / 60 °F | 58 °F / 51 °F | 67 % | 22 mph | - | 30.1 in | 0 in |